sensor_id;sensor_type;location;lat;lon;timestamp;pressure;altitude;pressure_sealevel;temperature
19040;BMP180;9652;49.014;12.052;2023-12-14T00:00:18;96578.00;;;11.00
19040;BMP180;9652;49.014;12.052;2023-12-14T00:02:46;96581.00;;;10.90
19040;BMP180;9652;49.014;12.052;2023-12-14T00:05:13;96588.00;;;10.80
19040;BMP180;9652;49.014;12.052;2023-12-14T00:07:40;96578.00;;;10.90
19040;BMP180;9652;49.014;12.052;2023-12-14T00:10:08;96563.00;;;10.90
19040;BMP180;9652;49.014;12.052;2023-12-14T00:12:35;96581.00;;;10.90
19040;BMP180;9652;49.014;12.052;2023-12-14T00:15:02;96593.00;;;10.90
19040;BMP180;9652;49.014;12.052;2023-12-14T00:17:31;96591.00;;;10.90
19040;BMP180;9652;49.014;12.052;2023-12-14T00:19:58;96596.00;;;10.90
19040;BMP180;9652;49.014;12.052;2023-12-14T00:22:25;96587.00;;;10.80
19040;BMP180;9652;49.014;12.052;2023-12-14T00:24:52;96599.00;;;10.80
19040;BMP180;9652;49.014;12.052;2023-12-14T00:27:19;96610.00;;;10.80
19040;BMP180;9652;49.014;12.052;2023-12-14T00:29:46;96625.00;;;10.80
19040;BMP180;9652;49.014;12.052;2023-12-14T00:32:13;96594.00;;;10.80
19040;BMP180;9652;49.014;12.052;2023-12-14T00:34:40;96614.00;;;10.80
19040;BMP180;9652;49.014;12.052;2023-12-14T00:37:07;96620.00;;;10.80
19040;BMP180;9652;49.014;12.052;2023-12-14T00:39:34;96623.00;;;10.80
19040;BMP180;9652;49.014;12.052;2023-12-14T00:42:01;96609.00;;;10.70
19040;BMP180;9652;49.014;12.052;2023-12-14T00:44:28;96635.00;;;10.70
19040;BMP180;9652;49.014;12.052;2023-12-14T00:46:55;96640.00;;;10.70
19040;BMP180;9652;49.014;12.052;2023-12-14T00:49:24;96636.00;;;10.70
19040;BMP180;9652;49.014;12.052;2023-12-14T00:51:55;96633.00;;;10.70
19040;BMP180;9652;49.014;12.052;2023-12-14T00:54:22;96655.00;;;10.60
19040;BMP180;9652;49.014;12.052;2023-12-14T00:56:49;96650.00;;;10.60
19040;BMP180;9652;49.014;12.052;2023-12-14T00:59:16;96658.00;;;10.60
19040;BMP180;9652;49.014;12.052;2023-12-14T01:01:43;96664.00;;;10.60
19040;BMP180;9652;49.014;12.052;2023-12-14T01:04:10;96667.00;;;10.60
19040;BMP180;9652;49.014;12.052;2023-12-14T01:06:37;96676.00;;;10.60
19040;BMP180;9652;49.014;12.052;2023-12-14T01:09:05;96682.00;;;10.60
19040;BMP180;9652;49.014;12.052;2023-12-14T01:11:34;96687.00;;;10.60
19040;BMP180;9652;49.014;12.052;2023-12-14T01:14:01;96683.00;;;10.60
19040;BMP180;9652;49.014;12.052;2023-12-14T01:16:28;96693.00;;;10.60
19040;BMP180;9652;49.014;12.052;2023-12-14T01:18:55;96692.00;;;10.60
19040;BMP180;9652;49.014;12.052;2023-12-14T01:21:22;96701.00;;;10.60
19040;BMP180;9652;49.014;12.052;2023-12-14T01:23:49;96694.00;;;10.60
19040;BMP180;9652;49.014;12.052;2023-12-14T01:26:17;96687.00;;;10.60
19040;BMP180;9652;49.014;12.052;2023-12-14T01:28:45;96707.00;;;10.60
19040;BMP180;9652;49.014;12.052;2023-12-14T01:31:12;96690.00;;;10.60
19040;BMP180;9652;49.014;12.052;2023-12-14T01:33:39;96708.00;;;10.60
19040;BMP180;9652;49.014;12.052;2023-12-14T01:36:06;96701.00;;;10.60
19040;BMP180;9652;49.014;12.052;2023-12-14T01:38:34;96681.00;;;10.50
19040;BMP180;9652;49.014;12.052;2023-12-14T01:41:01;96707.00;;;10.50
19040;BMP180;9652;49.014;12.052;2023-12-14T01:43:29;96707.00;;;10.50
19040;BMP180;9652;49.014;12.052;2023-12-14T01:45:56;96736.00;;;10.50
19040;BMP180;9652;49.014;12.052;2023-12-14T01:48:23;96728.00;;;10.50
19040;BMP180;9652;49.014;12.052;2023-12-14T01:50:50;96728.00;;;10.50
19040;BMP180;9652;49.014;12.052;2023-12-14T01:53:17;96742.00;;;10.50
19040;BMP180;9652;49.014;12.052;2023-12-14T01:55:44;96739.00;;;10.50
19040;BMP180;9652;49.014;12.052;2023-12-14T01:58:11;96736.00;;;10.50
19040;BMP180;9652;49.014;12.052;2023-12-14T02:00:44;96749.00;;;10.40
19040;BMP180;9652;49.014;12.052;2023-12-14T02:03:13;96750.00;;;10.40
19040;BMP180;9652;49.014;12.052;2023-12-14T02:05:40;96747.00;;;10.40
19040;BMP180;9652;49.014;12.052;2023-12-14T02:08:07;96761.00;;;10.40
19040;BMP180;9652;49.014;12.052;2023-12-14T02:10:34;96746.00;;;10.40
19040;BMP180;9652;49.014;12.052;2023-12-14T02:13:02;96760.00;;;10.40
19040;BMP180;9652;49.014;12.052;2023-12-14T02:15:29;96756.00;;;10.40
19040;BMP180;9652;49.014;12.052;2023-12-14T02:17:57;96762.00;;;10.40
19040;BMP180;9652;49.014;12.052;2023-12-14T02:20:24;96772.00;;;10.40
19040;BMP180;9652;49.014;12.052;2023-12-14T02:22:54;96772.00;;;10.40
19040;BMP180;9652;49.014;12.052;2023-12-14T02:25:22;96772.00;;;10.40
19040;BMP180;9652;49.014;12.052;2023-12-14T02:27:51;96767.00;;;10.40
19040;BMP180;9652;49.014;12.052;2023-12-14T02:30:18;96770.00;;;10.40
19040;BMP180;9652;49.014;12.052;2023-12-14T02:32:45;96726.00;;;10.40
19040;BMP180;9652;49.014;12.052;2023-12-14T02:35:12;96780.00;;;10.40
19040;BMP180;9652;49.014;12.052;2023-12-14T02:37:39;96775.00;;;10.40
19040;BMP180;9652;49.014;12.052;2023-12-14T02:40:10;96780.00;;;10.40
19040;BMP180;9652;49.014;12.052;2023-12-14T02:42:37;96793.00;;;10.40
19040;BMP180;9652;49.014;12.052;2023-12-14T02:45:06;96794.00;;;10.40
19040;BMP180;9652;49.014;12.052;2023-12-14T02:47:33;96800.00;;;10.40
19040;BMP180;9652;49.014;12.052;2023-12-14T02:50:01;96809.00;;;10.40
19040;BMP180;9652;49.014;12.052;2023-12-14T02:52:28;96788.00;;;10.40
19040;BMP180;9652;49.014;12.052;2023-12-14T02:54:55;96802.00;;;10.30
19040;BMP180;9652;49.014;12.052;2023-12-14T02:57:23;96809.00;;;10.30
19040;BMP180;9652;49.014;12.052;2023-12-14T02:59:50;96810.00;;;10.30
19040;BMP180;9652;49.014;12.052;2023-12-14T03:02:17;96808.00;;;10.30
19040;BMP180;9652;49.014;12.052;2023-12-14T03:04:44;96823.00;;;10.30
19040;BMP180;9652;49.014;12.052;2023-12-14T03:07:11;96819.00;;;10.30
19040;BMP180;9652;49.014;12.052;2023-12-14T03:09:40;96815.00;;;10.20
19040;BMP180;9652;49.014;12.052;2023-12-14T03:12:10;96821.00;;;10.20
19040;BMP180;9652;49.014;12.052;2023-12-14T03:14:38;96822.00;;;10.20
19040;BMP180;9652;49.014;12.052;2023-12-14T03:17:07;96817.00;;;10.20
19040;BMP180;9652;49.014;12.052;2023-12-14T03:19:39;96834.00;;;10.20
19040;BMP180;9652;49.014;12.052;2023-12-14T03:22:06;96837.00;;;10.20
19040;BMP180;9652;49.014;12.052;2023-12-14T03:24:34;96839.00;;;10.10
19040;BMP180;9652;49.014;12.052;2023-12-14T03:27:02;96857.00;;;10.10
19040;BMP180;9652;49.014;12.052;2023-12-14T03:29:29;96821.00;;;10.10
19040;BMP180;9652;49.014;12.052;2023-12-14T03:31:58;96856.00;;;10.10
19040;BMP180;9652;49.014;12.052;2023-12-14T03:34:25;96850.00;;;10.10
19040;BMP180;9652;49.014;12.052;2023-12-14T03:36:52;96858.00;;;10.10
19040;BMP180;9652;49.014;12.052;2023-12-14T03:39:19;96851.00;;;10.10
19040;BMP180;9652;49.014;12.052;2023-12-14T03:41:46;96859.00;;;10.10
19040;BMP180;9652;49.014;12.052;2023-12-14T03:44:13;96882.00;;;10.10
19040;BMP180;9652;49.014;12.052;2023-12-14T03:46:40;96868.00;;;10.10
19040;BMP180;9652;49.014;12.052;2023-12-14T03:49:08;96869.00;;;10.10
19040;BMP180;9652;49.014;12.052;2023-12-14T03:51:35;96873.00;;;10.10
19040;BMP180;9652;49.014;12.052;2023-12-14T03:54:02;96859.00;;;10.10
19040;BMP180;9652;49.014;12.052;2023-12-14T03:56:29;96871.00;;;10.10
19040;BMP180;9652;49.014;12.052;2023-12-14T03:58:57;96881.00;;;10.10
19040;BMP180;9652;49.014;12.052;2023-12-14T04:01:24;96882.00;;;10.10
19040;BMP180;9652;49.014;12.052;2023-12-14T04:03:51;96887.00;;;10.10
19040;BMP180;9652;49.014;12.052;2023-12-14T04:06:19;96886.00;;;10.10
19040;BMP180;9652;49.014;12.052;2023-12-14T04:08:46;96888.00;;;10.10
19040;BMP180;9652;49.014;12.052;2023-12-14T04:11:13;96890.00;;;10.20
19040;BMP180;9652;49.014;12.052;2023-12-14T04:13:40;96897.00;;;10.10
19040;BMP180;9652;49.014;12.052;2023-12-14T04:16:08;96899.00;;;10.10
19040;BMP180;9652;49.014;12.052;2023-12-14T04:18:35;96909.00;;;10.10
19040;BMP180;9652;49.014;12.052;2023-12-14T04:21:04;96909.00;;;10.10
19040;BMP180;9652;49.014;12.052;2023-12-14T04:23:33;96918.00;;;9.70
19040;BMP180;9652;49.014;12.052;2023-12-14T04:26:00;96904.00;;;10.10
19040;BMP180;9652;49.014;12.052;2023-12-14T04:28:27;96935.00;;;10.10
19040;BMP180;9652;49.014;12.052;2023-12-14T04:30:54;96913.00;;;10.10
19040;BMP180;9652;49.014;12.052;2023-12-14T04:33:21;96929.00;;;10.10
19040;BMP180;9652;49.014;12.052;2023-12-14T04:35:48;96927.00;;;10.10
19040;BMP180;9652;49.014;12.052;2023-12-14T04:38:15;96938.00;;;10.00
19040;BMP180;9652;49.014;12.052;2023-12-14T04:40:43;96937.00;;;10.00
19040;BMP180;9652;49.014;12.052;2023-12-14T04:43:10;96944.00;;;10.00
19040;BMP180;9652;49.014;12.052;2023-12-14T04:45:39;96936.00;;;10.00
19040;BMP180;9652;49.014;12.052;2023-12-14T04:48:06;96950.00;;;10.00
19040;BMP180;9652;49.014;12.052;2023-12-14T04:50:33;96956.00;;;10.00
19040;BMP180;9652;49.014;12.052;2023-12-14T04:53:00;96943.00;;;10.00
19040;BMP180;9652;49.014;12.052;2023-12-14T04:55:27;96968.00;;;10.00
19040;BMP180;9652;49.014;12.052;2023-12-14T04:57:56;96975.00;;;10.00
19040;BMP180;9652;49.014;12.052;2023-12-14T05:00:23;96979.00;;;10.00
19040;BMP180;9652;49.014;12.052;2023-12-14T05:02:50;96971.00;;;10.00
19040;BMP180;9652;49.014;12.052;2023-12-14T05:05:17;96977.00;;;10.00
19040;BMP180;9652;49.014;12.052;2023-12-14T05:07:44;96976.00;;;10.00
19040;BMP180;9652;49.014;12.052;2023-12-14T05:10:11;97000.00;;;10.00
19040;BMP180;9652;49.014;12.052;2023-12-14T05:12:38;96984.00;;;9.90
19040;BMP180;9652;49.014;12.052;2023-12-14T05:15:07;96999.00;;;9.90
19040;BMP180;9652;49.014;12.052;2023-12-14T05:17:35;96991.00;;;9.90
19040;BMP180;9652;49.014;12.052;2023-12-14T05:20:04;96997.00;;;10.00
19040;BMP180;9652;49.014;12.052;2023-12-14T05:22:31;97013.00;;;10.00
19040;BMP180;9652;49.014;12.052;2023-12-14T05:24:58;97011.00;;;10.00
19040;BMP180;9652;49.014;12.052;2023-12-14T05:27:25;97010.00;;;10.00
19040;BMP180;9652;49.014;12.052;2023-12-14T05:29:52;96961.00;;;10.00
19040;BMP180;9652;49.014;12.052;2023-12-14T05:32:21;97027.00;;;10.00
19040;BMP180;9652;49.014;12.052;2023-12-14T05:34:48;97020.00;;;10.10
19040;BMP180;9652;49.014;12.052;2023-12-14T05:37:15;97039.00;;;10.10
19040;BMP180;9652;49.014;12.052;2023-12-14T05:39:42;97040.00;;;10.10
19040;BMP180;9652;49.014;12.052;2023-12-14T05:42:11;97051.00;;;10.10
19040;BMP180;9652;49.014;12.052;2023-12-14T05:44:38;97058.00;;;10.10
19040;BMP180;9652;49.014;12.052;2023-12-14T05:47:05;97056.00;;;10.20
19040;BMP180;9652;49.014;12.052;2023-12-14T05:49:33;97067.00;;;10.20
19040;BMP180;9652;49.014;12.052;2023-12-14T05:52:00;97075.00;;;10.20
19040;BMP180;9652;49.014;12.052;2023-12-14T05:54:28;97070.00;;;10.20
19040;BMP180;9652;49.014;12.052;2023-12-14T05:56:55;97083.00;;;10.20
19040;BMP180;9652;49.014;12.052;2023-12-14T05:59:22;97078.00;;;10.20
19040;BMP180;9652;49.014;12.052;2023-12-14T06:01:49;97087.00;;;10.20
19040;BMP180;9652;49.014;12.052;2023-12-14T06:04:16;97075.00;;;10.20
19040;BMP180;9652;49.014;12.052;2023-12-14T06:06:45;96874.00;;;10.20
19040;BMP180;9652;49.014;12.052;2023-12-14T06:09:12;97099.00;;;10.20
19040;BMP180;9652;49.014;12.052;2023-12-14T06:11:39;97107.00;;;10.20
19040;BMP180;9652;49.014;12.052;2023-12-14T06:14:06;97099.00;;;10.20
19040;BMP180;9652;49.014;12.052;2023-12-14T06:16:33;97086.00;;;10.20
19040;BMP180;9652;49.014;12.052;2023-12-14T06:19:00;97107.00;;;10.20
19040;BMP180;9652;49.014;12.052;2023-12-14T06:21:27;97110.00;;;10.10
19040;BMP180;9652;49.014;12.052;2023-12-14T06:23:56;97115.00;;;10.10
19040;BMP180;9652;49.014;12.052;2023-12-14T06:26:25;97124.00;;;10.10
19040;BMP180;9652;49.014;12.052;2023-12-14T06:28:52;97115.00;;;10.10
19040;BMP180;9652;49.014;12.052;2023-12-14T06:31:19;97131.00;;;10.10
19040;BMP180;9652;49.014;12.052;2023-12-14T06:33:47;97130.00;;;10.10
19040;BMP180;9652;49.014;12.052;2023-12-14T06:36:16;97135.00;;;10.10
19040;BMP180;9652;49.014;12.052;2023-12-14T06:38:44;97146.00;;;10.10
19040;BMP180;9652;49.014;12.052;2023-12-14T06:41:21;97154.00;;;10.10
19040;BMP180;9652;49.014;12.052;2023-12-14T06:43:49;97128.00;;;10.10
19040;BMP180;9652;49.014;12.052;2023-12-14T06:46:18;97155.00;;;10.10
19040;BMP180;9652;49.014;12.052;2023-12-14T06:48:46;97140.00;;;9.90
19040;BMP180;9652;49.014;12.052;2023-12-14T06:51:14;97160.00;;;10.10
19040;BMP180;9652;49.014;12.052;2023-12-14T06:53:43;97166.00;;;10.10
19040;BMP180;9652;49.014;12.052;2023-12-14T06:56:12;97180.00;;;10.10
19040;BMP180;9652;49.014;12.052;2023-12-14T06:58:42;97183.00;;;10.10
19040;BMP180;9652;49.014;12.052;2023-12-14T07:01:12;97192.00;;;10.10
19040;BMP180;9652;49.014;12.052;2023-12-14T07:03:41;97183.00;;;10.10
19040;BMP180;9652;49.014;12.052;2023-12-14T07:06:12;97193.00;;;10.10
19040;BMP180;9652;49.014;12.052;2023-12-14T07:08:40;97180.00;;;10.10
19040;BMP180;9652;49.014;12.052;2023-12-14T07:11:08;97216.00;;;10.10
19040;BMP180;9652;49.014;12.052;2023-12-14T07:13:36;97217.00;;;10.10
19040;BMP180;9652;49.014;12.052;2023-12-14T07:16:08;97186.00;;;10.10
19040;BMP180;9652;49.014;12.052;2023-12-14T07:18:35;97233.00;;;10.00
19040;BMP180;9652;49.014;12.052;2023-12-14T07:21:03;97221.00;;;10.20
19040;BMP180;9652;49.014;12.052;2023-12-14T07:23:30;97232.00;;;10.20
19040;BMP180;9652;49.014;12.052;2023-12-14T07:25:58;97235.00;;;10.20
19040;BMP180;9652;49.014;12.052;2023-12-14T07:28:25;97235.00;;;10.20
19040;BMP180;9652;49.014;12.052;2023-12-14T07:30:53;97239.00;;;10.20
19040;BMP180;9652;49.014;12.052;2023-12-14T07:33:21;97274.00;;;10.20
19040;BMP180;9652;49.014;12.052;2023-12-14T07:35:49;97229.00;;;10.20
19040;BMP180;9652;49.014;12.052;2023-12-14T07:38:16;97255.00;;;10.20
19040;BMP180;9652;49.014;12.052;2023-12-14T07:40:43;97257.00;;;10.30
19040;BMP180;9652;49.014;12.052;2023-12-14T07:43:11;97235.00;;;10.30
19040;BMP180;9652;49.014;12.052;2023-12-14T07:45:38;97247.00;;;10.30
19040;BMP180;9652;49.014;12.052;2023-12-14T07:48:05;97254.00;;;10.30
19040;BMP180;9652;49.014;12.052;2023-12-14T07:50:33;97238.00;;;10.30
19040;BMP180;9652;49.014;12.052;2023-12-14T07:53:00;97247.00;;;10.30
19040;BMP180;9652;49.014;12.052;2023-12-14T07:55:29;97268.00;;;10.40
19040;BMP180;9652;49.014;12.052;2023-12-14T07:57:57;97275.00;;;10.40
19040;BMP180;9652;49.014;12.052;2023-12-14T08:00:24;97268.00;;;10.40
19040;BMP180;9652;49.014;12.052;2023-12-14T08:02:51;97289.00;;;10.40
19040;BMP180;9652;49.014;12.052;2023-12-14T08:05:19;97284.00;;;10.40
19040;BMP180;9652;49.014;12.052;2023-12-14T08:07:47;97276.00;;;10.50
19040;BMP180;9652;49.014;12.052;2023-12-14T08:10:18;97283.00;;;10.50
19040;BMP180;9652;49.014;12.052;2023-12-14T08:12:46;97289.00;;;10.50
19040;BMP180;9652;49.014;12.052;2023-12-14T08:15:14;97288.00;;;10.60
19040;BMP180;9652;49.014;12.052;2023-12-14T08:17:41;97292.00;;;10.60
19040;BMP180;9652;49.014;12.052;2023-12-14T08:20:10;97295.00;;;10.60
19040;BMP180;9652;49.014;12.052;2023-12-14T08:22:39;97275.00;;;10.60
19040;BMP180;9652;49.014;12.052;2023-12-14T08:25:12;97311.00;;;10.70
19040;BMP180;9652;49.014;12.052;2023-12-14T08:27:41;97323.00;;;10.70
19040;BMP180;9652;49.014;12.052;2023-12-14T08:30:11;97316.00;;;10.80
19040;BMP180;9652;49.014;12.052;2023-12-14T08:32:39;97319.00;;;10.80
19040;BMP180;9652;49.014;12.052;2023-12-14T08:35:07;97322.00;;;10.90
19040;BMP180;9652;49.014;12.052;2023-12-14T08:37:36;97335.00;;;11.00
19040;BMP180;9652;49.014;12.052;2023-12-14T08:40:04;97336.00;;;11.00
19040;BMP180;9652;49.014;12.052;2023-12-14T08:42:33;97345.00;;;11.10
19040;BMP180;9652;49.014;12.052;2023-12-14T08:45:01;97354.00;;;11.10
19040;BMP180;9652;49.014;12.052;2023-12-14T08:47:28;97349.00;;;10.70
19040;BMP180;9652;49.014;12.052;2023-12-14T08:49:56;97361.00;;;11.20
19040;BMP180;9652;49.014;12.052;2023-12-14T08:52:23;97354.00;;;11.20
19040;BMP180;9652;49.014;12.052;2023-12-14T08:54:51;97356.00;;;11.30
19040;BMP180;9652;49.014;12.052;2023-12-14T08:57:18;97379.00;;;11.30
19040;BMP180;9652;49.014;12.052;2023-12-14T08:59:47;97379.00;;;11.30
19040;BMP180;9652;49.014;12.052;2023-12-14T09:02:15;97351.00;;;11.30
19040;BMP180;9652;49.014;12.052;2023-12-14T09:04:42;97392.00;;;11.40
19040;BMP180;9652;49.014;12.052;2023-12-14T09:07:09;97391.00;;;11.40
19040;BMP180;9652;49.014;12.052;2023-12-14T09:09:37;97395.00;;;11.40
19040;BMP180;9652;49.014;12.052;2023-12-14T09:12:05;97367.00;;;11.50
19040;BMP180;9652;49.014;12.052;2023-12-14T09:14:32;97401.00;;;11.50
19040;BMP180;9652;49.014;12.052;2023-12-14T09:17:01;97383.00;;;11.50
19040;BMP180;9652;49.014;12.052;2023-12-14T09:19:30;97374.00;;;11.60
19040;BMP180;9652;49.014;12.052;2023-12-14T09:21:58;97405.00;;;11.60
19040;BMP180;9652;49.014;12.052;2023-12-14T09:24:25;97419.00;;;11.60
19040;BMP180;9652;49.014;12.052;2023-12-14T09:26:53;97364.00;;;11.70
19040;BMP180;9652;49.014;12.052;2023-12-14T09:29:20;97421.00;;;11.70
19040;BMP180;9652;49.014;12.052;2023-12-14T09:31:47;97428.00;;;11.80
19040;BMP180;9652;49.014;12.052;2023-12-14T09:34:17;97431.00;;;11.80
19040;BMP180;9652;49.014;12.052;2023-12-14T09:36:45;97436.00;;;11.80
19040;BMP180;9652;49.014;12.052;2023-12-14T09:39:12;97402.00;;;11.80
19040;BMP180;9652;49.014;12.052;2023-12-14T09:41:41;97442.00;;;11.80
19040;BMP180;9652;49.014;12.052;2023-12-14T09:44:08;97433.00;;;11.80
19040;BMP180;9652;49.014;12.052;2023-12-14T09:46:37;97445.00;;;11.80
19040;BMP180;9652;49.014;12.052;2023-12-14T09:49:09;97449.00;;;11.90
19040;BMP180;9652;49.014;12.052;2023-12-14T09:51:38;97454.00;;;11.90
19040;BMP180;9652;49.014;12.052;2023-12-14T09:54:07;97432.00;;;11.90
19040;BMP180;9652;49.014;12.052;2023-12-14T09:56:34;97459.00;;;11.90
19040;BMP180;9652;49.014;12.052;2023-12-14T09:59:02;97428.00;;;11.90
19040;BMP180;9652;49.014;12.052;2023-12-14T10:01:30;97466.00;;;11.90
19040;BMP180;9652;49.014;12.052;2023-12-14T10:04:19;97473.00;;;11.90
19040;BMP180;9652;49.014;12.052;2023-12-14T10:06:49;97492.00;;;11.90
19040;BMP180;9652;49.014;12.052;2023-12-14T10:09:23;97472.00;;;11.80
19040;BMP180;9652;49.014;12.052;2023-12-14T10:12:03;97465.00;;;11.90
19040;BMP180;9652;49.014;12.052;2023-12-14T10:14:32;97479.00;;;11.90
19040;BMP180;9652;49.014;12.052;2023-12-14T10:17:16;97470.00;;;11.90
19040;BMP180;9652;49.014;12.052;2023-12-14T10:19:44;97458.00;;;11.90
19040;BMP180;9652;49.014;12.052;2023-12-14T10:22:15;97451.00;;;11.90
19040;BMP180;9652;49.014;12.052;2023-12-14T10:24:44;97485.00;;;11.90
19040;BMP180;9652;49.014;12.052;2023-12-14T10:27:14;97483.00;;;12.00
19040;BMP180;9652;49.014;12.052;2023-12-14T10:29:42;97449.00;;;12.00
19040;BMP180;9652;49.014;12.052;2023-12-14T10:32:10;97470.00;;;12.00
19040;BMP180;9652;49.014;12.052;2023-12-14T10:34:38;97495.00;;;12.10
19040;BMP180;9652;49.014;12.052;2023-12-14T10:37:06;97496.00;;;12.10
19040;BMP180;9652;49.014;12.052;2023-12-14T10:39:37;97490.00;;;12.10
19040;BMP180;9652;49.014;12.052;2023-12-14T10:42:08;97480.00;;;12.10
19040;BMP180;9652;49.014;12.052;2023-12-14T10:44:37;97502.00;;;12.10
19040;BMP180;9652;49.014;12.052;2023-12-14T10:47:06;97495.00;;;12.10
19040;BMP180;9652;49.014;12.052;2023-12-14T10:49:36;97515.00;;;12.20
19040;BMP180;9652;49.014;12.052;2023-12-14T10:52:04;97502.00;;;12.20
19040;BMP180;9652;49.014;12.052;2023-12-14T10:54:36;97513.00;;;12.20
19040;BMP180;9652;49.014;12.052;2023-12-14T10:57:05;97512.00;;;12.20
19040;BMP180;9652;49.014;12.052;2023-12-14T10:59:35;97517.00;;;12.20
19040;BMP180;9652;49.014;12.052;2023-12-14T11:02:09;97502.00;;;12.20
19040;BMP180;9652;49.014;12.052;2023-12-14T11:04:56;97516.00;;;12.20
19040;BMP180;9652;49.014;12.052;2023-12-14T11:07:48;97493.00;;;12.20
19040;BMP180;9652;49.014;12.052;2023-12-14T11:10:22;97509.00;;;12.10
19040;BMP180;9652;49.014;12.052;2023-12-14T11:13:01;97518.00;;;12.10
19040;BMP180;9652;49.014;12.052;2023-12-14T11:15:30;97525.00;;;12.10
19040;BMP180;9652;49.014;12.052;2023-12-14T11:18:25;97504.00;;;12.00
19040;BMP180;9652;49.014;12.052;2023-12-14T11:20:58;97526.00;;;11.90
19040;BMP180;9652;49.014;12.052;2023-12-14T11:23:36;97536.00;;;12.00
19040;BMP180;9652;49.014;12.052;2023-12-14T11:26:09;97533.00;;;12.00
19040;BMP180;9652;49.014;12.052;2023-12-14T11:28:39;97548.00;;;12.00
19040;BMP180;9652;49.014;12.052;2023-12-14T11:31:10;97535.00;;;12.00
19040;BMP180;9652;49.014;12.052;2023-12-14T11:33:38;97550.00;;;12.00
19040;BMP180;9652;49.014;12.052;2023-12-14T11:36:06;97545.00;;;12.10
19040;BMP180;9652;49.014;12.052;2023-12-14T11:38:35;97535.00;;;12.10
19040;BMP180;9652;49.014;12.052;2023-12-14T11:41:03;97550.00;;;12.10
19040;BMP180;9652;49.014;12.052;2023-12-14T11:43:39;97553.00;;;12.10
19040;BMP180;9652;49.014;12.052;2023-12-14T11:46:07;97518.00;;;12.20
19040;BMP180;9652;49.014;12.052;2023-12-14T11:48:35;97549.00;;;12.20
19040;BMP180;9652;49.014;12.052;2023-12-14T11:51:03;97557.00;;;12.20
19040;BMP180;9652;49.014;12.052;2023-12-14T11:53:31;97561.00;;;12.20
19040;BMP180;9652;49.014;12.052;2023-12-14T11:55:59;97559.00;;;12.30
19040;BMP180;9652;49.014;12.052;2023-12-14T11:58:28;97567.00;;;12.30
19040;BMP180;9652;49.014;12.052;2023-12-14T12:01:12;97567.00;;;12.30
19040;BMP180;9652;49.014;12.052;2023-12-14T12:03:40;97574.00;;;12.30
19040;BMP180;9652;49.014;12.052;2023-12-14T12:06:07;97571.00;;;12.20
19040;BMP180;9652;49.014;12.052;2023-12-14T12:08:41;97575.00;;;12.30
19040;BMP180;9652;49.014;12.052;2023-12-14T12:11:09;97571.00;;;12.30
19040;BMP180;9652;49.014;12.052;2023-12-14T12:13:36;97577.00;;;12.20
19040;BMP180;9652;49.014;12.052;2023-12-14T12:16:05;97532.00;;;12.00
19040;BMP180;9652;49.014;12.052;2023-12-14T12:18:32;97573.00;;;12.20
19040;BMP180;9652;49.014;12.052;2023-12-14T12:20:59;97572.00;;;12.20
19040;BMP180;9652;49.014;12.052;2023-12-14T12:23:31;97562.00;;;12.20
19040;BMP180;9652;49.014;12.052;2023-12-14T12:25:59;97571.00;;;12.20
19040;BMP180;9652;49.014;12.052;2023-12-14T12:28:27;97588.00;;;12.20
19040;BMP180;9652;49.014;12.052;2023-12-14T12:30:54;97549.00;;;12.20
19040;BMP180;9652;49.014;12.052;2023-12-14T12:33:22;97576.00;;;12.20
19040;BMP180;9652;49.014;12.052;2023-12-14T12:35:49;97577.00;;;12.30
19040;BMP180;9652;49.014;12.052;2023-12-14T12:38:16;97590.00;;;12.30
19040;BMP180;9652;49.014;12.052;2023-12-14T12:40:44;97583.00;;;12.30
19040;BMP180;9652;49.014;12.052;2023-12-14T12:43:13;97599.00;;;12.30
19040;BMP180;9652;49.014;12.052;2023-12-14T12:45:40;97595.00;;;12.30
19040;BMP180;9652;49.014;12.052;2023-12-14T12:48:07;97559.00;;;12.40
19040;BMP180;9652;49.014;12.052;2023-12-14T12:50:37;97596.00;;;12.40
19040;BMP180;9652;49.014;12.052;2023-12-14T12:53:04;97595.00;;;12.50
19040;BMP180;9652;49.014;12.052;2023-12-14T12:55:31;97594.00;;;12.50
19040;BMP180;9652;49.014;12.052;2023-12-14T12:57:58;97616.00;;;12.50
19040;BMP180;9652;49.014;12.052;2023-12-14T13:00:30;97607.00;;;12.50
19040;BMP180;9652;49.014;12.052;2023-12-14T13:02:57;97596.00;;;12.50
19040;BMP180;9652;49.014;12.052;2023-12-14T13:05:26;97602.00;;;12.50
19040;BMP180;9652;49.014;12.052;2023-12-14T13:07:55;97616.00;;;12.50
19040;BMP180;9652;49.014;12.052;2023-12-14T13:10:23;97624.00;;;12.60
19040;BMP180;9652;49.014;12.052;2023-12-14T13:12:52;97560.00;;;12.60
19040;BMP180;9652;49.014;12.052;2023-12-14T13:15:19;97624.00;;;12.60
19040;BMP180;9652;49.014;12.052;2023-12-14T13:17:49;97619.00;;;12.50
19040;BMP180;9652;49.014;12.052;2023-12-14T13:20:16;97636.00;;;12.50
19040;BMP180;9652;49.014;12.052;2023-12-14T13:22:44;97644.00;;;12.50
19040;BMP180;9652;49.014;12.052;2023-12-14T13:25:12;97632.00;;;12.50
19040;BMP180;9652;49.014;12.052;2023-12-14T13:27:40;97665.00;;;12.50
19040;BMP180;9652;49.014;12.052;2023-12-14T13:30:07;97647.00;;;12.40
19040;BMP180;9652;49.014;12.052;2023-12-14T13:32:35;97641.00;;;12.40
19040;BMP180;9652;49.014;12.052;2023-12-14T13:35:02;97649.00;;;12.40
19040;BMP180;9652;49.014;12.052;2023-12-14T13:37:29;97641.00;;;12.40
19040;BMP180;9652;49.014;12.052;2023-12-14T13:39:56;97649.00;;;12.40
19040;BMP180;9652;49.014;12.052;2023-12-14T13:42:25;97649.00;;;12.40
19040;BMP180;9652;49.014;12.052;2023-12-14T13:44:52;97651.00;;;12.40
19040;BMP180;9652;49.014;12.052;2023-12-14T13:47:19;97663.00;;;12.30
19040;BMP180;9652;49.014;12.052;2023-12-14T13:49:46;97671.00;;;12.30
19040;BMP180;9652;49.014;12.052;2023-12-14T13:52:13;97669.00;;;12.30
19040;BMP180;9652;49.014;12.052;2023-12-14T13:54:40;97669.00;;;12.30
19040;BMP180;9652;49.014;12.052;2023-12-14T13:57:07;97652.00;;;12.30
19040;BMP180;9652;49.014;12.052;2023-12-14T13:59:35;97691.00;;;12.20
19040;BMP180;9652;49.014;12.052;2023-12-14T14:02:03;97684.00;;;12.20
19040;BMP180;9652;49.014;12.052;2023-12-14T14:04:30;97682.00;;;12.20
19040;BMP180;9652;49.014;12.052;2023-12-14T14:06:57;97695.00;;;12.20
19040;BMP180;9652;49.014;12.052;2023-12-14T14:09:24;97712.00;;;12.20
19040;BMP180;9652;49.014;12.052;2023-12-14T14:11:51;97711.00;;;12.10
19040;BMP180;9652;49.014;12.052;2023-12-14T14:14:18;97717.00;;;12.10